createdAt,value
2023-03-07T00:01:34.630Z,12.32
2023-03-07T00:05:37.806Z,15.43
2023-03-07T00:09:40.801Z,13.95
2023-03-07T00:13:45.444Z,10.85
2023-03-07T00:17:48.434Z,12.93
2023-03-07T00:21:51.540Z,11.73
2023-03-07T00:26:02.124Z,11.70
2023-03-07T00:30:07.689Z,13.43
2023-03-07T00:34:10.654Z,14.48
2023-03-07T00:38:13.752Z,11.00
2023-03-07T00:42:17.413Z,10.05
2023-03-07T00:46:24.498Z,12.98
2023-03-07T00:50:27.481Z,12.57
2023-03-07T00:54:30.903Z,16.50
2023-03-07T00:58:36.104Z,13.65
2023-03-07T01:02:40.820Z,13.50
2023-03-07T01:06:43.833Z,13.10
2023-03-07T01:10:48.678Z,13.55
2023-03-07T01:14:52.566Z,13.00
2023-03-07T01:18:58.820Z,14.68
2023-03-07T01:23:03.894Z,12.90
2023-03-07T01:27:07.755Z,12.77
2023-03-07T01:31:10.837Z,15.40
2023-03-07T01:35:16.834Z,17.27
2023-03-07T01:39:19.816Z,13.98
2023-03-07T01:43:35.289Z,18.50
2023-03-07T01:47:43.612Z,13.98
2023-03-07T01:51:52.260Z,14.27
2023-03-07T01:55:55.350Z,16.80
2023-03-07T02:00:05.769Z,11.95
2023-03-07T02:04:22.523Z,14.10
2023-03-07T02:12:48.165Z,12.50
2023-03-07T02:16:52.258Z,13.48
2023-03-07T02:21:01.719Z,15.40
2023-03-07T02:25:13.493Z,13.32
2023-03-07T02:29:18.065Z,13.13
2023-03-07T02:33:25.126Z,11.63
2023-03-07T02:37:38.219Z,13.70
2023-03-07T02:41:42.123Z,14.70
2023-03-07T02:45:55.729Z,11.88
2023-03-07T02:49:58.937Z,12.57
2023-03-07T02:54:02.734Z,11.88
2023-03-07T02:58:06.159Z,14.80
2023-03-07T03:02:10.592Z,17.77
2023-03-07T03:06:13.914Z,14.48
2023-03-07T03:10:17.259Z,11.25
2023-03-07T03:14:20.600Z,13.82
2023-03-07T03:18:25.489Z,12.23
2023-03-07T03:22:28.755Z,12.75
2023-03-07T03:26:31.988Z,15.98
2023-03-07T03:30:36.101Z,15.30
2023-03-07T03:34:41.910Z,13.02
2023-03-07T03:38:45.334Z,12.80
2023-03-07T03:42:48.433Z,12.00
2023-03-07T03:46:55.857Z,13.38
2023-03-07T03:51:06.120Z,12.13
2023-03-07T03:55:10.384Z,12.07
2023-03-07T03:59:13.474Z,12.82
2023-03-07T04:03:16.631Z,14.25
2023-03-07T04:07:22.223Z,13.35
2023-03-07T04:11:26.938Z,15.85
2023-03-07T04:15:30.145Z,14.93
2023-03-07T04:19:33.404Z,13.70
2023-03-07T04:23:38.457Z,12.05
2023-03-07T04:27:41.783Z,15.40
2023-03-07T04:31:45.029Z,16.48
2023-03-07T04:35:48.685Z,12.23
2023-03-07T04:39:53.180Z,13.85
2023-03-07T04:43:57.057Z,13.95
2023-03-07T04:48:01.351Z,11.02
2023-03-07T04:52:05.584Z,13.40
2023-03-07T04:56:11.549Z,11.15
2023-03-07T05:00:17.107Z,11.02
2023-03-07T05:04:20.709Z,9.80
2023-03-07T05:08:24.345Z,13.43
2023-03-07T05:12:29.216Z,10.10
2023-03-07T05:16:33.653Z,16.02
2023-03-07T05:20:36.866Z,9.68
2023-03-07T05:24:40.112Z,13.45
2023-03-07T05:28:44.736Z,12.57
2023-03-07T05:32:47.910Z,11.75
2023-03-07T05:36:51.802Z,15.77
2023-03-07T05:40:55.299Z,14.10
2023-03-07T05:44:59.798Z,13.95
2023-03-07T05:49:03.063Z,15.32
2023-03-07T05:53:06.535Z,15.65
2023-03-07T05:57:10.168Z,13.77
2023-03-07T06:01:14.894Z,12.65
2023-03-07T06:05:18.196Z,16.27
2023-03-07T06:09:22.356Z,18.95
2023-03-07T06:13:26.693Z,12.38
2023-03-07T06:17:31.160Z,14.95
2023-03-07T06:21:34.736Z,15.73
2023-03-07T06:25:38.329Z,10.90
2023-03-07T06:29:41.613Z,14.02
2023-03-07T06:33:47.669Z,16.73
2023-03-07T06:37:52.376Z,11.75
2023-03-07T06:41:55.494Z,14.90
2023-03-07T06:45:58.718Z,13.70
2023-03-07T06:50:09.103Z,12.32
2023-03-07T06:54:13.401Z,16.13
2023-03-07T06:58:16.902Z,10.88
2023-03-07T07:02:20.467Z,11.18
2023-03-07T07:06:25.405Z,12.27
2023-03-07T07:10:28.848Z,11.55
2023-03-07T07:14:32.394Z,12.57
2023-03-07T07:18:35.940Z,10.13
2023-03-07T07:22:43.368Z,15.02
2023-03-07T07:26:46.603Z,14.68
2023-03-07T07:30:49.652Z,10.75
2023-03-07T07:34:53.104Z,11.15
2023-03-07T07:38:57.840Z,12.55
2023-03-07T07:43:01.050Z,10.55
2023-03-07T07:47:20.026Z,10.32
2023-03-07T07:51:23.344Z,13.65
2023-03-07T07:55:28.536Z,15.63
2023-03-07T07:59:34.275Z,11.05
2023-03-07T08:03:38.404Z,9.43
2023-03-07T08:07:41.574Z,9.93
2023-03-07T08:11:46.500Z,12.23
2023-03-07T08:15:49.656Z,15.00
2023-03-07T08:19:52.732Z,13.95
2023-03-07T08:23:56.710Z,14.65
2023-03-07T08:28:03.486Z,14.07
2023-03-07T08:32:07.315Z,12.77
2023-03-07T08:36:10.741Z,11.90
2023-03-07T08:40:14.621Z,11.52
2023-03-07T08:44:19.032Z,12.82
2023-03-07T08:48:22.184Z,11.90
2023-03-07T08:52:25.236Z,12.68
2023-03-07T08:56:28.393Z,14.05
2023-03-07T09:00:32.948Z,11.77
2023-03-07T09:04:36.161Z,14.40
2023-03-07T09:08:39.167Z,11.75
2023-03-07T09:12:42.233Z,13.40
2023-03-07T09:16:46.587Z,14.68
2023-03-07T09:20:51.043Z,14.75
2023-03-07T09:24:54.055Z,14.25
2023-03-07T09:28:57.153Z,14.18
2023-03-07T09:33:01.577Z,12.18
2023-03-07T09:37:04.764Z,17.38
2023-03-07T09:41:27.642Z,13.82
2023-03-07T09:45:45.365Z,14.18
2023-03-07T09:49:55.358Z,14.98
2023-03-07T09:54:01.953Z,11.20
2023-03-07T09:58:10.942Z,15.02
2023-03-07T10:02:21.679Z,13.88
2023-03-07T10:06:31.521Z,13.63
2023-03-07T10:10:39.818Z,12.57
2023-03-07T10:14:56.108Z,12.82
2023-03-07T10:19:10.032Z,13.25
2023-03-07T10:23:39.144Z,10.50
2023-03-07T10:27:42.305Z,11.23
2023-03-07T10:31:50.014Z,13.10
2023-03-07T10:35:59.205Z,13.48
2023-03-07T10:40:05.061Z,13.35
2023-03-07T10:44:17.486Z,10.77
2023-03-07T10:48:23.558Z,13.85
2023-03-07T10:52:35.196Z,10.38
2023-03-07T10:56:39.650Z,8.15
2023-03-07T11:00:44.400Z,8.73
2023-03-07T11:04:48.436Z,9.55
2023-03-07T11:08:51.565Z,10.82
2023-03-07T11:12:57.389Z,10.27
2023-03-07T11:17:02.063Z,13.23
2023-03-07T11:21:05.486Z,11.32
2023-03-07T11:25:19.066Z,11.82
2023-03-07T11:29:24.900Z,8.65
2023-03-07T11:33:39.271Z,9.65
2023-03-07T11:37:58.793Z,10.90
2023-03-07T11:42:06.311Z,10.52
2023-03-07T11:46:17.654Z,8.68
2023-03-07T11:50:24.279Z,10.48
2023-03-07T11:54:35.585Z,9.48
2023-03-07T11:58:53.005Z,10.57
2023-03-07T12:03:15.076Z,10.10
2023-03-07T12:07:33.569Z,11.27
2023-03-07T12:11:52.141Z,8.32
2023-03-07T12:16:06.221Z,12.43
2023-03-07T12:20:27.192Z,7.72
2023-03-07T12:24:36.297Z,8.90
2023-03-07T12:28:46.557Z,11.73
2023-03-07T12:32:52.066Z,5.82
2023-03-07T12:37:00.737Z,6.25
2023-03-07T12:41:12.167Z,6.25
2023-03-07T12:45:19.944Z,6.63
2023-03-07T12:49:32.266Z,6.95
2023-03-07T12:53:47.770Z,5.55
2023-03-07T12:57:59.323Z,5.90
2023-03-07T13:02:05.559Z,4.90
2023-03-07T13:06:17.892Z,5.50
2023-03-07T13:10:24.521Z,7.20
2023-03-07T13:14:46.172Z,5.50
2023-03-07T13:18:49.135Z,5.60
2023-03-07T13:23:01.308Z,6.22
2023-03-07T13:27:15.244Z,9.00
2023-03-07T13:31:39.839Z,7.35
2023-03-07T13:35:55.763Z,8.18
2023-03-07T13:40:02.807Z,6.85
2023-03-07T13:44:29.017Z,6.78
2023-03-07T13:49:02.029Z,6.65
2023-03-07T13:53:12.767Z,5.53
2023-03-07T13:57:17.960Z,11.18
2023-03-07T14:01:25.542Z,5.35
2023-03-07T14:05:30.062Z,8.10
2023-03-07T14:09:41.928Z,6.00
2023-03-07T14:14:20.562Z,7.15
2023-03-07T14:18:37.432Z,8.40
2023-03-07T14:22:52.466Z,4.10
2023-03-07T14:26:58.803Z,5.63
2023-03-07T14:31:05.528Z,2.92
2023-03-07T14:35:15.233Z,4.15
2023-03-07T14:39:18.654Z,6.32
2023-03-07T14:43:37.685Z,4.35
2023-03-07T14:48:00.246Z,4.57
2023-03-07T14:52:05.617Z,5.78
2023-03-07T14:56:09.820Z,4.25
2023-03-07T15:00:16.741Z,3.83
2023-03-07T15:04:24.915Z,7.40
2023-03-07T15:08:31.622Z,5.05
2023-03-07T15:12:34.839Z,4.93
2023-03-07T15:16:41.472Z,6.22
2023-03-07T15:20:45.789Z,5.15
2023-03-07T15:24:52.988Z,4.93
2023-03-07T15:29:01.382Z,7.07
2023-03-07T15:33:06.468Z,3.25
2023-03-07T15:37:22.651Z,6.07
2023-03-07T15:41:29.787Z,4.53
2023-03-07T15:45:35.160Z,4.22
2023-03-07T15:49:44.348Z,6.70
2023-03-07T15:53:56.075Z,5.10
2023-03-07T15:58:02.916Z,6.18
2023-03-07T16:02:42.114Z,9.13
2023-03-07T16:06:46.818Z,8.07
2023-03-07T16:10:53.704Z,6.43
2023-03-07T16:15:00.012Z,8.77
2023-03-07T16:19:03.548Z,8.80
2023-03-07T16:23:08.031Z,7.47
2023-03-07T16:27:16.605Z,8.15
2023-03-07T16:31:21.603Z,9.18
2023-03-07T16:35:26.414Z,8.68
2023-03-07T16:39:29.758Z,9.63
2023-03-07T16:43:35.313Z,7.07
2023-03-07T16:47:39.698Z,10.88
2023-03-07T16:51:42.904Z,9.13
2023-03-07T16:55:46.974Z,9.55
2023-03-07T16:59:50.041Z,10.77
2023-03-07T17:03:56.382Z,11.95
2023-03-07T17:08:00.145Z,11.98
2023-03-07T17:12:03.206Z,10.82
2023-03-07T17:16:06.631Z,11.25
2023-03-07T17:20:14.156Z,12.25
2023-03-07T17:24:17.327Z,10.93
2023-03-07T17:28:20.672Z,11.02
2023-03-07T17:32:24.209Z,13.52
2023-03-07T17:36:28.602Z,11.23
2023-03-07T17:40:32.322Z,12.45
2023-03-07T17:44:35.570Z,10.52
2023-03-07T17:48:38.908Z,13.40
2023-03-07T17:52:43.567Z,12.23
2023-03-07T17:56:46.778Z,14.05
2023-03-07T18:00:50.452Z,14.27
2023-03-07T18:04:53.729Z,13.57
2023-03-07T18:08:58.143Z,13.05
2023-03-07T18:13:01.306Z,11.50
2023-03-07T18:17:04.404Z,14.63
2023-03-07T18:21:10.244Z,12.38
2023-03-07T18:25:16.951Z,14.68
2023-03-07T18:29:21.015Z,16.42
2023-03-07T18:33:24.908Z,13.13
2023-03-07T18:37:29.731Z,14.40
2023-03-07T18:41:34.161Z,13.75
2023-03-07T18:45:37.241Z,15.80
2023-03-07T18:49:40.342Z,18.23
2023-03-07T18:53:43.849Z,15.18
2023-03-07T18:57:48.253Z,13.70
2023-03-07T19:01:51.377Z,14.48
2023-03-07T19:05:54.399Z,16.33
2023-03-07T19:09:57.685Z,17.42
2023-03-07T19:14:02.145Z,15.45
2023-03-07T19:18:05.270Z,13.40
2023-03-07T19:22:10.928Z,14.65
2023-03-07T19:26:16.702Z,16.90
2023-03-07T19:30:21.365Z,18.73
2023-03-07T19:34:24.969Z,17.75
2023-03-07T19:38:28.004Z,16.65
2023-03-07T19:42:31.093Z,17.88
2023-03-07T19:46:35.461Z,14.32
2023-03-07T19:50:41.718Z,17.95
2023-03-07T19:54:45.488Z,13.80
2023-03-07T19:58:49.113Z,14.15
2023-03-07T20:02:53.560Z,15.55
2023-03-07T20:06:56.647Z,14.25
2023-03-07T20:11:12.656Z,16.10
2023-03-07T20:15:15.889Z,17.42
2023-03-07T20:19:20.757Z,19.58
2023-03-07T20:23:23.812Z,16.13
2023-03-07T20:27:27.224Z,15.00
2023-03-07T20:31:30.705Z,18.35
2023-03-07T20:35:35.317Z,18.50
2023-03-07T20:39:38.732Z,20.85
2023-03-07T20:43:41.769Z,20.15
2023-03-07T20:47:44.878Z,18.67
2023-03-07T20:51:49.745Z,15.73
2023-03-07T20:55:52.904Z,17.45
2023-03-07T20:59:56.028Z,16.02
2023-03-07T21:04:06.133Z,17.10
2023-03-07T21:08:11.175Z,17.58
2023-03-07T21:12:14.212Z,16.27
2023-03-07T21:16:19.338Z,16.55
2023-03-07T21:20:22.424Z,18.95
2023-03-07T21:24:26.800Z,17.02
2023-03-07T21:28:29.844Z,17.42
2023-03-07T21:32:32.880Z,13.50
2023-03-07T21:36:36.330Z,15.52
2023-03-07T21:40:42.513Z,18.60
2023-03-07T21:44:45.606Z,15.98
2023-03-07T21:48:48.818Z,17.13
2023-03-07T21:52:51.890Z,16.52
2023-03-07T21:56:56.329Z,17.40
2023-03-07T22:00:59.975Z,16.27
2023-03-07T22:05:02.998Z,14.45
2023-03-07T22:09:06.161Z,14.80
2023-03-07T22:13:10.622Z,16.85
2023-03-07T22:17:13.892Z,16.48
2023-03-07T22:21:17.301Z,15.35
2023-03-07T22:25:20.469Z,18.02
2023-03-07T22:29:24.836Z,14.15
2023-03-07T22:33:27.945Z,16.33
2023-03-07T22:37:31.155Z,16.45
2023-03-07T22:41:34.950Z,15.77
2023-03-07T22:45:39.359Z,21.25
2023-03-07T22:49:42.623Z,15.90
2023-03-07T22:53:45.910Z,16.05
2023-03-07T22:57:49.021Z,21.90
2023-03-07T23:01:54.743Z,17.52
2023-03-07T23:06:02.190Z,21.75
2023-03-07T23:10:05.821Z,19.75
2023-03-07T23:14:09.559Z,23.77
2023-03-07T23:18:14.681Z,21.08
2023-03-07T23:22:17.862Z,21.05
2023-03-07T23:26:23.058Z,19.02
2023-03-07T23:30:26.126Z,19.52
2023-03-07T23:34:30.966Z,19.23
2023-03-07T23:38:34.318Z,18.65
2023-03-07T23:42:37.545Z,23.23
2023-03-07T23:46:40.676Z,19.05
2023-03-07T23:50:45.075Z,18.38
2023-03-07T23:54:48.162Z,16.33
2023-03-07T23:58:51.637Z,18.80
